San Juan Enterprise — WDD9563 — position and weather

sailwx.info

Track history (hours):
 
Tides and Currents Weather Stations Pressure Air Temp Water Temp Dewpoint Dewpoint Depression Visibility Wind Speed Wind Dir Waves Ship Positions

San Juan Enterprise

Owner: SAN JUAN MARINE FREIGHT CO LLC, ANACORTES, WA. More information available from US FCC via Universal Licensing System and Coast Guard Vessel Documentation Center.

Last reported at 2015-May-05 14:25 UTC. Time now 2015-May-05 15:17 UTC.
Position N 48°31' W 122°36'.

Length 30 m.

MMSI: 367313160.

Date/timePositionNaut miles runAvg speedWind from/ knotsBaromVisibWave heightAir tempDewpointWater temp
2015-May-05 14:25N 48°31' W 122°36'0 0.0
2015-May-05 13:25N 48°31' W 122°36'0 0.0
2015-May-05 12:31N 48°31' W 122°36'0 0.0
2015-May-05 11:31N 48°31' W 122°36'0 0.0
2015-May-05 10:25N 48°31' W 122°36'0 0.0
2015-May-05 09:31N 48°31' W 122°36'0 0.0
2015-May-05 08:31N 48°31' W 122°36'0 0.0
2015-May-05 07:25N 48°31' W 122°36'0 0.0
2015-May-05 06:31N 48°31' W 122°36'0 0.0
2015-May-05 05:31N 48°31' W 122°36'0 0.0
2015-May-05 04:31N 48°31' W 122°36'0 0.0
2015-May-05 03:25N 48°31' W 122°36'0 0.0
2015-May-05 02:25N 48°31' W 122°36'0 0.0
2015-May-05 01:31N 48°31' W 122°36'0 0.0
2015-May-05 00:31N 48°31' W 122°36'0 0.0
2015-May-04 23:31N 48°31' W 122°36'0 0.0
2015-May-04 22:31N 48°31' W 122°36'0 0.0
2015-May-04 21:31N 48°31' W 122°36'0 0.0
2015-May-04 20:25N 48°31' W 122°36'0 0.0
2015-May-04 19:27N 48°31' W 122°36'3 3.6
2015-May-04 18:33N 48°32' W 122°41'7 6.6
2015-May-04 17:33N 48°35' W 122°49'0 0.3
2015-May-04 16:33N 48°35' W 122°49'6 5.7
2015-May-04 15:33N 48°32' W 122°42'4 4.0
2015-May-04 14:32N 48°31' W 122°36'0 0.0
2015-May-04 13:32N 48°31' W 122°36'0 0.0
2015-May-04 12:32N 48°31' W 122°36'0 0.0
2015-May-04 11:32N 48°31' W 122°36'0 0.0
2015-May-04 10:32N 48°31' W 122°36'0 0.0
2015-May-04 09:32N 48°31' W 122°36'0 0.0
2015-May-04 08:32N 48°31' W 122°36'0 0.0
2015-May-04 07:32N 48°31' W 122°36'0 0.0
2015-May-04 06:32N 48°31' W 122°36'0 0.0
2015-May-04 05:32N 48°31' W 122°36'0 0.0
2015-May-04 04:32N 48°31' W 122°36'0 0.0
2015-May-04 03:32N 48°31' W 122°36'0 0.0
2015-May-04 02:32N 48°31' W 122°36'0 0.0
2015-May-04 01:32N 48°31' W 122°36'0 0.0
2015-May-04 00:32N 48°31' W 122°36'0 0.0
2015-May-03 23:14N 48°31' W 122°36'0 0.0
2015-May-03 22:32N 48°31' W 122°36'0 0.0
2015-May-03 21:32N 48°31' W 122°36'0 0.0
2015-May-03 20:32N 48°31' W 122°36'0 0.0
2015-May-03 19:32N 48°31' W 122°36'0 0.0
2015-May-03 18:32N 48°31' W 122°36'0 0.0
2015-May-03 17:32N 48°31' W 122°36'0 0.0
2015-May-03 16:32N 48°31' W 122°36'0 0.0
2015-May-03 15:32N 48°31' W 122°36'0 0.0
2015-May-03 14:32N 48°31' W 122°36'0 0.0
2015-May-03 13:32N 48°31' W 122°36'0 0.0
2015-May-03 12:31N 48°31' W 122°36'0 0.0
2015-May-03 11:31N 48°31' W 122°36'0 0.0
2015-May-03 10:31N 48°31' W 122°36'0 0.0
2015-May-03 09:25N 48°31' W 122°36'0 0.0
2015-May-03 08:28N 48°31' W 122°36'0 0.0
2015-May-03 07:31N 48°31' W 122°36'0 0.0
2015-May-03 06:31N 48°31' W 122°36'0 0.0
2015-May-03 05:31N 48°31' W 122°36'0 0.0
2015-May-03 04:31N 48°31' W 122°36'0 0.0
2015-May-03 03:31N 48°31' W 122°36'0 0.0
2015-May-03 02:31N 48°31' W 122°36'0 0.0
2015-May-03 01:13N 48°31' W 122°36'0 0.0
2015-May-03 00:31N 48°31' W 122°36'0 0.0
2015-May-02 23:31N 48°31' W 122°36'0 0.0
2015-May-02 22:31N 48°31' W 122°36'0 0.0
2015-May-02 21:31N 48°31' W 122°36'0 0.0
2015-May-02 20:31N 48°31' W 122°36'0 0.0
2015-May-02 19:19N 48°31' W 122°36'0 0.0
2015-May-02 18:31N 48°31' W 122°36'0 0.0
2015-May-02 17:31N 48°31' W 122°36'0 0.0
2015-May-02 16:25N 48°31' W 122°36'0 0.0
2015-May-02 15:31N 48°31' W 122°36'0 0.0
2015-May-02 14:31N 48°31' W 122°36'0 0.0
2015-May-02 13:26N 48°31' W 122°36'0 0.0
2015-May-02 12:31N 48°31' W 122°36'0 0.0
2015-May-02 11:31N 48°31' W 122°36'0 0.0
2015-May-02 10:31N 48°31' W 122°36'0 0.0
2015-May-02 09:31N 48°31' W 122°36'0 0.0
2015-May-02 08:25N 48°31' W 122°36'0 0.0
2015-May-02 07:25N 48°31' W 122°36'0 0.0
2015-May-02 06:31N 48°31' W 122°36'0 0.0
2015-May-02 05:31N 48°31' W 122°36'0 0.0
2015-May-02 04:31N 48°31' W 122°36'0 0.0
2015-May-02 03:31N 48°31' W 122°36'0 0.0
2015-May-02 02:31N 48°31' W 122°36'0 0.0
2015-May-02 01:25N 48°31' W 122°36'0 0.0
2015-May-02 00:31N 48°31' W 122°36'0 0.0
2015-May-01 23:31N 48°31' W 122°36'0 0.0
2015-May-01 22:31N 48°31' W 122°36'0 0.0
2015-May-01 21:31N 48°31' W 122°36'0 0.0
2015-May-01 20:31N 48°31' W 122°36'0 0.0
2015-May-01 19:31N 48°31' W 122°36'0 0.0
2015-May-01 18:31N 48°31' W 122°36'0 0.0
2015-May-01 17:31N 48°31' W 122°36'0 0.0
2015-May-01 16:31N 48°31' W 122°36'0 0.0
2015-May-01 15:32N 48°31' W 122°36'0 0.0
2015-May-01 14:33N 48°31' W 122°36'0 0.0
2015-May-01 13:30N 48°31' W 122°36'0 0.0
2015-May-01 12:30N 48°31' W 122°36'0 0.0
2015-May-01 11:30N 48°31' W 122°36'0 0.0
2015-May-01 10:24N 48°31' W 122°36'0 0.0
2015-May-01 09:18N 48°31' W 122°36'0 0.0
2015-May-01 08:24N 48°31' W 122°36'0 0.0
2015-May-01 07:30N 48°31' W 122°36'0 0.0
2015-May-01 06:30N 48°31' W 122°36'0 0.0
2015-May-01 05:30N 48°31' W 122°36'0 0.0
2015-May-01 04:33N 48°31' W 122°36'0 0.0
2015-May-01 03:27N 48°31' W 122°36'0 0.0
2015-May-01 02:13N 48°31' W 122°36'0 0.0
2015-May-01 01:24N 48°31' W 122°36'0 0.0
2015-May-01 00:33N 48°31' W 122°36'0 0.0
2015-Apr-30 23:33N 48°31' W 122°36'0 0.0
2015-Apr-30 22:30N 48°31' W 122°36'0 0.0
2015-Apr-30 21:30N 48°31' W 122°36'1 0.6
2015-Apr-30 20:33N 48°31' W 122°36'4 4.0
2015-Apr-30 19:33N 48°33' W 122°41'0 0.0
2015-Apr-30 18:33N 48°33' W 122°41'3 3.4
2015-Apr-30 17:33N 48°31' W 122°37'0 0.0
2015-Apr-30 16:33N 48°31' W 122°37'0 0.4
2015-Apr-30 15:32N 48°31' W 122°36'0 0.0
2015-Apr-30 14:32N 48°31' W 122°36'0 0.0
2015-Apr-30 13:32N 48°31' W 122°36'0 0.0
2015-Apr-30 12:32N 48°31' W 122°36'0 0.0
2015-Apr-30 11:32N 48°31' W 122°36'0 0.0
2015-Apr-30 10:32N 48°31' W 122°36'0 0.0
2015-Apr-30 09:32N 48°31' W 122°36'0 0.0
2015-Apr-30 08:32N 48°31' W 122°36'0 0.0
2015-Apr-30 07:26N 48°31' W 122°36'0 0.0
2015-Apr-30 06:32N 48°31' W 122°36'0 0.0
2015-Apr-30 05:32N 48°31' W 122°36'0 0.0
2015-Apr-30 04:32N 48°31' W 122°36'0 0.0
2015-Apr-30 03:32N 48°31' W 122°36'0 0.0
2015-Apr-30 02:32N 48°31' W 122°36'0 0.0
2015-Apr-30 01:32N 48°31' W 122°36'0 0.0
2015-Apr-30 00:32N 48°31' W 122°36'1 1.3
2015-Apr-29 23:34N 48°31' W 122°38'7 7.5
2015-Apr-29 22:34N 48°33' W 122°49'0 0.0
2015-Apr-29 21:34N 48°33' W 122°49'2 1.8
2015-Apr-29 20:34N 48°35' W 122°49'6 6.1
2015-Apr-29 19:33N 48°31' W 122°43'4 3.9
2015-Apr-29 18:31N 48°31' W 122°36'0 0.0
2015-Apr-29 17:31N 48°31' W 122°36'0 0.0
2015-Apr-29 16:31N 48°31' W 122°36'0 0.0
2015-Apr-29 15:31N 48°31' W 122°36'0 0.0
2015-Apr-29 14:31N 48°31' W 122°36'0 0.0
2015-Apr-29 13:31N 48°31' W 122°36'0 0.0
2015-Apr-29 12:31N 48°31' W 122°36'0 0.0
2015-Apr-29 11:31N 48°31' W 122°36'0 0.0
2015-Apr-29 10:31N 48°31' W 122°36'0 0.0
2015-Apr-29 09:31N 48°31' W 122°36'0 0.0
2015-Apr-29 08:31N 48°31' W 122°36'0 0.0
2015-Apr-29 07:31N 48°31' W 122°36'0 0.0
2015-Apr-29 06:31N 48°31' W 122°36'0 0.0
2015-Apr-29 05:31N 48°31' W 122°36'0 0.0
2015-Apr-29 04:31N 48°31' W 122°36'0 0.0
2015-Apr-29 03:31N 48°31' W 122°36'0 0.0
2015-Apr-29 02:25N 48°31' W 122°36'0 0.0
2015-Apr-29 01:31N 48°31' W 122°36'0 0.0
2015-Apr-29 00:31N 48°31' W 122°36'0 0.0
2015-Apr-28 23:31N 48°31' W 122°36'0 0.0
2015-Apr-28 22:31N 48°31' W 122°36'0 0.0
2015-Apr-28 21:31N 48°31' W 122°36'0 0.0
2015-Apr-28 20:31N 48°31' W 122°36'0 0.0
2015-Apr-28 19:31N 48°31' W 122°36'0 0.0
2015-Apr-28 18:31N 48°31' W 122°36'0 0.0
2015-Apr-28 17:31N 48°31' W 122°36'0 0.0
2015-Apr-28 16:31N 48°31' W 122°36'0 0.0
2015-Apr-28 15:31N 48°31' W 122°36'0 0.0
2015-Apr-28 14:31N 48°31' W 122°36'0 0.0
2015-Apr-28 13:31N 48°31' W 122°36'0 0.0
2015-Apr-28 12:31N 48°31' W 122°36'0 0.0
2015-Apr-28 11:31N 48°31' W 122°36'0 0.0
2015-Apr-28 10:31N 48°31' W 122°36'0 0.0
2015-Apr-28 09:31N 48°31' W 122°36'0 0.0
2015-Apr-28 08:31N 48°31' W 122°36'0 0.0
2015-Apr-28 07:31N 48°31' W 122°36'0 0.0
2015-Apr-28 06:31N 48°31' W 122°36'0 0.0
2015-Apr-28 05:25N 48°31' W 122°36'0 0.0
2015-Apr-28 04:31N 48°31' W 122°36'0 0.0
2015-Apr-28 03:31N 48°31' W 122°36'0 0.0
2015-Apr-28 02:31N 48°31' W 122°36'0 0.0
2015-Apr-28 01:31N 48°31' W 122°36'0 0.0
2015-Apr-28 00:31N 48°31' W 122°36'0 0.0
2015-Apr-27 23:33N 48°31' W 122°36'0 0.3
2015-Apr-27 22:33N 48°31' W 122°37'7 7.2
2015-Apr-27 21:33N 48°31' W 122°47'2 2.4
2015-Apr-27 20:33N 48°31' W 122°44'5 4.6
2015-Apr-27 19:28N 48°31' W 122°36'0 0.0
2015-Apr-27 18:28N 48°31' W 122°36'0 0.0
2015-Apr-27 17:22N 48°31' W 122°36'0 0.0
2015-Apr-27 16:22N 48°31' W 122°36'0 0.0
2015-Apr-27 15:28N 48°31' W 122°36'0 0.0
2015-Apr-27 14:22N 48°31' W 122°36'0 0.0
2015-Apr-27 13:28N 48°31' W 122°36'0 0.0
2015-Apr-27 12:28N 48°31' W 122°36'0 0.0
2015-Apr-27 11:28N 48°31' W 122°36'0 0.0
2015-Apr-27 10:28N 48°31' W 122°36'0 0.0
2015-Apr-27 09:28N 48°31' W 122°36'0 0.0
2015-Apr-27 08:28N 48°31' W 122°36'0 0.0
2015-Apr-27 07:28N 48°31' W 122°36'0 0.0
2015-Apr-27 06:28N 48°31' W 122°36'0 0.0
2015-Apr-27 05:28N 48°31' W 122°36'0 0.0
2015-Apr-27 04:28N 48°31' W 122°36'0 0.0
2015-Apr-27 03:28N 48°31' W 122°36'0 0.0
2015-Apr-27 02:28N 48°31' W 122°36'0 0.0
2015-Apr-27 01:28N 48°31' W 122°36'0 0.0
2015-Apr-27 00:28N 48°31' W 122°36'0 0.0
2015-Apr-26 23:28N 48°31' W 122°36'0 0.0
2015-Apr-26 22:28N 48°31' W 122°36'0 0.0
2015-Apr-26 21:28N 48°31' W 122°36'0 0.0
2015-Apr-26 20:28N 48°31' W 122°36'0 0.0
2015-Apr-26 19:28N 48°31' W 122°36'0 0.0
2015-Apr-26 18:28N 48°31' W 122°36'0 0.0
2015-Apr-26 17:28N 48°31' W 122°36'0 0.0
2015-Apr-26 16:22N 48°31' W 122°36'0 0.0
2015-Apr-26 15:28N 48°31' W 122°36'0 0.0
2015-Apr-26 14:28N 48°31' W 122°36'0 0.0
2015-Apr-26 13:22N 48°31' W 122°36'0 0.0
2015-Apr-26 12:28N 48°31' W 122°36'0 0.0
2015-Apr-26 11:28N 48°31' W 122°36'0 0.0
2015-Apr-26 10:22N 48°31' W 122°36'0 0.0
2015-Apr-26 09:28N 48°31' W 122°36'0 0.0
2015-Apr-26 08:28N 48°31' W 122°36'0 0.0
2015-Apr-26 07:28N 48°31' W 122°36'0 0.0
2015-Apr-26 06:28N 48°31' W 122°36'0 0.0
2015-Apr-26 05:28N 48°31' W 122°36'0 0.0
2015-Apr-26 04:28N 48°31' W 122°36'0 0.0
2015-Apr-26 03:28N 48°31' W 122°36'0 0.0
2015-Apr-26 02:28N 48°31' W 122°36'0 0.0
2015-Apr-26 01:28N 48°31' W 122°36'0 0.0
2015-Apr-26 00:28N 48°31' W 122°36'0 0.0
2015-Apr-25 23:28N 48°31' W 122°36'0 0.0
2015-Apr-25 22:28N 48°31' W 122°36'0 0.0
2015-Apr-25 21:28N 48°31' W 122°36'0 0.0
2015-Apr-25 20:28N 48°31' W 122°36'0 0.0
2015-Apr-25 19:28N 48°31' W 122°36'0 0.0
2015-Apr-25 18:22N 48°31' W 122°36'0 0.0
2015-Apr-25 17:28N 48°31' W 122°36'0 0.0
2015-Apr-25 16:28N 48°31' W 122°36'0 0.0
2015-Apr-25 15:28N 48°31' W 122°36'0 0.0
2015-Apr-25 14:28N 48°31' W 122°36'  
Track history (hours):
 
Tides and Currents Weather Stations Pressure Air Temp Water Temp Dewpoint Dewpoint Depression Visibility Wind Speed Wind Dir Waves Ship Positions

San Juan Enterprise

Owner: SAN JUAN MARINE FREIGHT CO LLC, ANACORTES, WA. More information available from US FCC via Universal Licensing System and Coast Guard Vessel Documentation Center.

Last reported at 2015-May-05 14:25 UTC. Time now 2015-May-05 15:17 UTC.
Position N 48°31' W 122°36'.

Length 30 m.

MMSI: 367313160.

Date/timePositionNaut miles runAvg speedWind from/ knotsBaromVisibWave heightAir tempDewpointWater temp
2015-May-05 14:25N 48°31' W 122°36'0 0.0
2015-May-05 13:25N 48°31' W 122°36'0 0.0
2015-May-05 12:31N 48°31' W 122°36'0 0.0
2015-May-05 11:31N 48°31' W 122°36'0 0.0
2015-May-05 10:25N 48°31' W 122°36'0 0.0
2015-May-05 09:31N 48°31' W 122°36'0 0.0
2015-May-05 08:31N 48°31' W 122°36'0 0.0
2015-May-05 07:25N 48°31' W 122°36'0 0.0
2015-May-05 06:31N 48°31' W 122°36'0 0.0
2015-May-05 05:31N 48°31' W 122°36'0 0.0
2015-May-05 04:31N 48°31' W 122°36'0 0.0
2015-May-05 03:25N 48°31' W 122°36'0 0.0
2015-May-05 02:25N 48°31' W 122°36'0 0.0
2015-May-05 01:31N 48°31' W 122°36'0 0.0
2015-May-05 00:31N 48°31' W 122°36'0 0.0
2015-May-04 23:31N 48°31' W 122°36'0 0.0
2015-May-04 22:31N 48°31' W 122°36'0 0.0
2015-May-04 21:31N 48°31' W 122°36'0 0.0
2015-May-04 20:25N 48°31' W 122°36'0 0.0
2015-May-04 19:27N 48°31' W 122°36'3 3.6
2015-May-04 18:33N 48°32' W 122°41'7 6.6
2015-May-04 17:33N 48°35' W 122°49'0 0.3
2015-May-04 16:33N 48°35' W 122°49'6 5.7
2015-May-04 15:33N 48°32' W 122°42'4 4.0
2015-May-04 14:32N 48°31' W 122°36'0 0.0
2015-May-04 13:32N 48°31' W 122°36'0 0.0
2015-May-04 12:32N 48°31' W 122°36'0 0.0
2015-May-04 11:32N 48°31' W 122°36'0 0.0
2015-May-04 10:32N 48°31' W 122°36'0 0.0
2015-May-04 09:32N 48°31' W 122°36'0 0.0
2015-May-04 08:32N 48°31' W 122°36'0 0.0
2015-May-04 07:32N 48°31' W 122°36'0 0.0
2015-May-04 06:32N 48°31' W 122°36'0 0.0
2015-May-04 05:32N 48°31' W 122°36'0 0.0
2015-May-04 04:32N 48°31' W 122°36'0 0.0
2015-May-04 03:32N 48°31' W 122°36'0 0.0
2015-May-04 02:32N 48°31' W 122°36'0 0.0
2015-May-04 01:32N 48°31' W 122°36'0 0.0
2015-May-04 00:32N 48°31' W 122°36'0 0.0
2015-May-03 23:14N 48°31' W 122°36'0 0.0
2015-May-03 22:32N 48°31' W 122°36'0 0.0
2015-May-03 21:32N 48°31' W 122°36'0 0.0
2015-May-03 20:32N 48°31' W 122°36'0 0.0
2015-May-03 19:32N 48°31' W 122°36'0 0.0
2015-May-03 18:32N 48°31' W 122°36'0 0.0
2015-May-03 17:32N 48°31' W 122°36'0 0.0
2015-May-03 16:32N 48°31' W 122°36'0 0.0
2015-May-03 15:32N 48°31' W 122°36'0 0.0
2015-May-03 14:32N 48°31' W 122°36'0 0.0
2015-May-03 13:32N 48°31' W 122°36'0 0.0
2015-May-03 12:31N 48°31' W 122°36'0 0.0
2015-May-03 11:31N 48°31' W 122°36'0 0.0
2015-May-03 10:31N 48°31' W 122°36'0 0.0
2015-May-03 09:25N 48°31' W 122°36'0 0.0
2015-May-03 08:28N 48°31' W 122°36'0 0.0
2015-May-03 07:31N 48°31' W 122°36'0 0.0
2015-May-03 06:31N 48°31' W 122°36'0 0.0
2015-May-03 05:31N 48°31' W 122°36'0 0.0
2015-May-03 04:31N 48°31' W 122°36'0 0.0
2015-May-03 03:31N 48°31' W 122°36'0 0.0
2015-May-03 02:31N 48°31' W 122°36'0 0.0
2015-May-03 01:13N 48°31' W 122°36'0 0.0
2015-May-03 00:31N 48°31' W 122°36'0 0.0
2015-May-02 23:31N 48°31' W 122°36'0 0.0
2015-May-02 22:31N 48°31' W 122°36'0 0.0
2015-May-02 21:31N 48°31' W 122°36'0 0.0
2015-May-02 20:31N 48°31' W 122°36'0 0.0
2015-May-02 19:19N 48°31' W 122°36'0 0.0
2015-May-02 18:31N 48°31' W 122°36'0 0.0
2015-May-02 17:31N 48°31' W 122°36'0 0.0
2015-May-02 16:25N 48°31' W 122°36'0 0.0
2015-May-02 15:31N 48°31' W 122°36'0 0.0
2015-May-02 14:31N 48°31' W 122°36'0 0.0
2015-May-02 13:26N 48°31' W 122°36'0 0.0
2015-May-02 12:31N 48°31' W 122°36'0 0.0
2015-May-02 11:31N 48°31' W 122°36'0 0.0
2015-May-02 10:31N 48°31' W 122°36'0 0.0
2015-May-02 09:31N 48°31' W 122°36'0 0.0
2015-May-02 08:25N 48°31' W 122°36'0 0.0
2015-May-02 07:25N 48°31' W 122°36'0 0.0
2015-May-02 06:31N 48°31' W 122°36'0 0.0
2015-May-02 05:31N 48°31' W 122°36'0 0.0
2015-May-02 04:31N 48°31' W 122°36'0 0.0
2015-May-02 03:31N 48°31' W 122°36'0 0.0
2015-May-02 02:31N 48°31' W 122°36'0 0.0
2015-May-02 01:25N 48°31' W 122°36'0 0.0
2015-May-02 00:31N 48°31' W 122°36'0 0.0
2015-May-01 23:31N 48°31' W 122°36'0 0.0
2015-May-01 22:31N 48°31' W 122°36'0 0.0
2015-May-01 21:31N 48°31' W 122°36'0 0.0
2015-May-01 20:31N 48°31' W 122°36'0 0.0
2015-May-01 19:31N 48°31' W 122°36'0 0.0
2015-May-01 18:31N 48°31' W 122°36'0 0.0
2015-May-01 17:31N 48°31' W 122°36'0 0.0
2015-May-01 16:31N 48°31' W 122°36'0 0.0
2015-May-01 15:32N 48°31' W 122°36'0 0.0
2015-May-01 14:33N 48°31' W 122°36'0 0.0
2015-May-01 13:30N 48°31' W 122°36'0 0.0
2015-May-01 12:30N 48°31' W 122°36'0 0.0
2015-May-01 11:30N 48°31' W 122°36'0 0.0
2015-May-01 10:24N 48°31' W 122°36'0 0.0
2015-May-01 09:18N 48°31' W 122°36'0 0.0
2015-May-01 08:24N 48°31' W 122°36'0 0.0
2015-May-01 07:30N 48°31' W 122°36'0 0.0
2015-May-01 06:30N 48°31' W 122°36'0 0.0
2015-May-01 05:30N 48°31' W 122°36'0 0.0
2015-May-01 04:33N 48°31' W 122°36'0 0.0
2015-May-01 03:27N 48°31' W 122°36'0 0.0
2015-May-01 02:13N 48°31' W 122°36'0 0.0
2015-May-01 01:24N 48°31' W 122°36'0 0.0
2015-May-01 00:33N 48°31' W 122°36'0 0.0
2015-Apr-30 23:33N 48°31' W 122°36'0 0.0
2015-Apr-30 22:30N 48°31' W 122°36'0 0.0
2015-Apr-30 21:30N 48°31' W 122°36'1 0.6
2015-Apr-30 20:33N 48°31' W 122°36'4 4.0
2015-Apr-30 19:33N 48°33' W 122°41'0 0.0
2015-Apr-30 18:33N 48°33' W 122°41'3 3.4
2015-Apr-30 17:33N 48°31' W 122°37'0 0.0
2015-Apr-30 16:33N 48°31' W 122°37'0 0.4
2015-Apr-30 15:32N 48°31' W 122°36'0 0.0
2015-Apr-30 14:32N 48°31' W 122°36'0 0.0
2015-Apr-30 13:32N 48°31' W 122°36'0 0.0
2015-Apr-30 12:32N 48°31' W 122°36'0 0.0
2015-Apr-30 11:32N 48°31' W 122°36'0 0.0
2015-Apr-30 10:32N 48°31' W 122°36'0 0.0
2015-Apr-30 09:32N 48°31' W 122°36'0 0.0
2015-Apr-30 08:32N 48°31' W 122°36'0 0.0
2015-Apr-30 07:26N 48°31' W 122°36'0 0.0
2015-Apr-30 06:32N 48°31' W 122°36'0 0.0
2015-Apr-30 05:32N 48°31' W 122°36'0 0.0
2015-Apr-30 04:32N 48°31' W 122°36'0 0.0
2015-Apr-30 03:32N 48°31' W 122°36'0 0.0
2015-Apr-30 02:32N 48°31' W 122°36'0 0.0
2015-Apr-30 01:32N 48°31' W 122°36'0 0.0
2015-Apr-30 00:32N 48°31' W 122°36'1 1.3
2015-Apr-29 23:34N 48°31' W 122°38'7 7.5
2015-Apr-29 22:34N 48°33' W 122°49'0 0.0
2015-Apr-29 21:34N 48°33' W 122°49'2 1.8
2015-Apr-29 20:34N 48°35' W 122°49'6 6.1
2015-Apr-29 19:33N 48°31' W 122°43'4 3.9
2015-Apr-29 18:31N 48°31' W 122°36'0 0.0
2015-Apr-29 17:31N 48°31' W 122°36'0 0.0
2015-Apr-29 16:31N 48°31' W 122°36'0 0.0
2015-Apr-29 15:31N 48°31' W 122°36'0 0.0
2015-Apr-29 14:31N 48°31' W 122°36'0 0.0
2015-Apr-29 13:31N 48°31' W 122°36'0 0.0
2015-Apr-29 12:31N 48°31' W 122°36'0 0.0
2015-Apr-29 11:31N 48°31' W 122°36'0 0.0
2015-Apr-29 10:31N 48°31' W 122°36'0 0.0
2015-Apr-29 09:31N 48°31' W 122°36'0 0.0
2015-Apr-29 08:31N 48°31' W 122°36'0 0.0
2015-Apr-29 07:31N 48°31' W 122°36'0 0.0
2015-Apr-29 06:31N 48°31' W 122°36'0 0.0
2015-Apr-29 05:31N 48°31' W 122°36'0 0.0
2015-Apr-29 04:31N 48°31' W 122°36'0 0.0
2015-Apr-29 03:31N 48°31' W 122°36'0 0.0
2015-Apr-29 02:25N 48°31' W 122°36'0 0.0
2015-Apr-29 01:31N 48°31' W 122°36'0 0.0
2015-Apr-29 00:31N 48°31' W 122°36'0 0.0
2015-Apr-28 23:31N 48°31' W 122°36'0 0.0
2015-Apr-28 22:31N 48°31' W 122°36'0 0.0
2015-Apr-28 21:31N 48°31' W 122°36'0 0.0
2015-Apr-28 20:31N 48°31' W 122°36'0 0.0
2015-Apr-28 19:31N 48°31' W 122°36'0 0.0
2015-Apr-28 18:31N 48°31' W 122°36'0 0.0
2015-Apr-28 17:31N 48°31' W 122°36'0 0.0
2015-Apr-28 16:31N 48°31' W 122°36'0 0.0
2015-Apr-28 15:31N 48°31' W 122°36'0 0.0
2015-Apr-28 14:31N 48°31' W 122°36'0 0.0
2015-Apr-28 13:31N 48°31' W 122°36'0 0.0
2015-Apr-28 12:31N 48°31' W 122°36'0 0.0
2015-Apr-28 11:31N 48°31' W 122°36'0 0.0
2015-Apr-28 10:31N 48°31' W 122°36'0 0.0
2015-Apr-28 09:31N 48°31' W 122°36'0 0.0
2015-Apr-28 08:31N 48°31' W 122°36'0 0.0
2015-Apr-28 07:31N 48°31' W 122°36'0 0.0
2015-Apr-28 06:31N 48°31' W 122°36'0 0.0
2015-Apr-28 05:25N 48°31' W 122°36'0 0.0
2015-Apr-28 04:31N 48°31' W 122°36'0 0.0
2015-Apr-28 03:31N 48°31' W 122°36'0 0.0
2015-Apr-28 02:31N 48°31' W 122°36'0 0.0
2015-Apr-28 01:31N 48°31' W 122°36'0 0.0
2015-Apr-28 00:31N 48°31' W 122°36'0 0.0
2015-Apr-27 23:33N 48°31' W 122°36'0 0.3
2015-Apr-27 22:33N 48°31' W 122°37'7 7.2
2015-Apr-27 21:33N 48°31' W 122°47'2 2.4
2015-Apr-27 20:33N 48°31' W 122°44'5 4.6
2015-Apr-27 19:28N 48°31' W 122°36'0 0.0
2015-Apr-27 18:28N 48°31' W 122°36'0 0.0
2015-Apr-27 17:22N 48°31' W 122°36'0 0.0
2015-Apr-27 16:22N 48°31' W 122°36'0 0.0
2015-Apr-27 15:28N 48°31' W 122°36'0 0.0
2015-Apr-27 14:22N 48°31' W 122°36'0 0.0
2015-Apr-27 13:28N 48°31' W 122°36'0 0.0
2015-Apr-27 12:28N 48°31' W 122°36'0 0.0
2015-Apr-27 11:28N 48°31' W 122°36'0 0.0
2015-Apr-27 10:28N 48°31' W 122°36'0 0.0
2015-Apr-27 09:28N 48°31' W 122°36'0 0.0
2015-Apr-27 08:28N 48°31' W 122°36'0 0.0
2015-Apr-27 07:28N 48°31' W 122°36'0 0.0
2015-Apr-27 06:28N 48°31' W 122°36'0 0.0
2015-Apr-27 05:28N 48°31' W 122°36'0 0.0
2015-Apr-27 04:28N 48°31' W 122°36'0 0.0
2015-Apr-27 03:28N 48°31' W 122°36'0 0.0
2015-Apr-27 02:28N 48°31' W 122°36'0 0.0
2015-Apr-27 01:28N 48°31' W 122°36'0 0.0
2015-Apr-27 00:28N 48°31' W 122°36'0 0.0
2015-Apr-26 23:28N 48°31' W 122°36'0 0.0
2015-Apr-26 22:28N 48°31' W 122°36'0 0.0
2015-Apr-26 21:28N 48°31' W 122°36'0 0.0
2015-Apr-26 20:28N 48°31' W 122°36'0 0.0
2015-Apr-26 19:28N 48°31' W 122°36'0 0.0
2015-Apr-26 18:28N 48°31' W 122°36'0 0.0
2015-Apr-26 17:28N 48°31' W 122°36'0 0.0
2015-Apr-26 16:22N 48°31' W 122°36'0 0.0
2015-Apr-26 15:28N 48°31' W 122°36'0 0.0
2015-Apr-26 14:28N 48°31' W 122°36'0 0.0
2015-Apr-26 13:22N 48°31' W 122°36'0 0.0
2015-Apr-26 12:28N 48°31' W 122°36'0 0.0
2015-Apr-26 11:28N 48°31' W 122°36'0 0.0
2015-Apr-26 10:22N 48°31' W 122°36'0 0.0
2015-Apr-26 09:28N 48°31' W 122°36'0 0.0
2015-Apr-26 08:28N 48°31' W 122°36'0 0.0
2015-Apr-26 07:28N 48°31' W 122°36'0 0.0
2015-Apr-26 06:28N 48°31' W 122°36'0 0.0
2015-Apr-26 05:28N 48°31' W 122°36'0 0.0
2015-Apr-26 04:28N 48°31' W 122°36'0 0.0
2015-Apr-26 03:28N 48°31' W 122°36'0 0.0
2015-Apr-26 02:28N 48°31' W 122°36'0 0.0
2015-Apr-26 01:28N 48°31' W 122°36'0 0.0
2015-Apr-26 00:28N 48°31' W 122°36'0 0.0
2015-Apr-25 23:28N 48°31' W 122°36'0 0.0
2015-Apr-25 22:28N 48°31' W 122°36'0 0.0
2015-Apr-25 21:28N 48°31' W 122°36'0 0.0
2015-Apr-25 20:28N 48°31' W 122°36'0 0.0
2015-Apr-25 19:28N 48°31' W 122°36'0 0.0
2015-Apr-25 18:22N 48°31' W 122°36'0 0.0
2015-Apr-25 17:28N 48°31' W 122°36'0 0.0
2015-Apr-25 16:28N 48°31' W 122°36'0 0.0
2015-Apr-25 15:28N 48°31' W 122°36'0 0.0
2015-Apr-25 14:28N 48°31' W 122°36'  

Dump ship's entire track history